sensor_id;sensor_type;location;lat;lon;timestamp;pressure;altitude;pressure_sealevel;temperature;humidity
3697;BME280;60662;48.810;8.872;2022-08-19T08:15:24;96314.28;;;20.09;73.52
3697;BME280;60662;48.810;8.872;2022-08-19T08:16:25;96315.88;;;20.21;73.35
3697;BME280;60662;48.810;8.872;2022-08-19T08:17:32;96319.91;;;20.25;73.00
3697;BME280;60662;48.810;8.872;2022-08-19T08:18:51;96328.81;;;20.04;73.11
3697;BME280;60662;48.810;8.872;2022-08-19T08:19:53;96323.69;;;20.13;73.43
3697;BME280;60662;48.810;8.872;2022-08-19T08:20:56;96316.13;;;20.08;72.97
3697;BME280;60662;48.810;8.872;2022-08-19T08:21:59;96319.06;;;20.05;73.47
3697;BME280;60662;48.810;8.872;2022-08-19T08:23:01;96325.47;;;20.12;73.05
3697;BME280;60662;48.810;8.872;2022-08-19T08:24:21;96332.69;;;20.00;73.61
3697;BME280;60662;48.810;8.872;2022-08-19T08:25:29;96328.66;;;20.06;73.62
3697;BME280;60662;48.810;8.872;2022-08-19T08:26:34;96331.88;;;20.10;73.42
3697;BME280;60662;48.810;8.872;2022-08-19T08:27:39;96329.41;;;20.18;72.97
3697;BME280;60662;48.810;8.872;2022-08-19T08:28:42;96334.88;;;20.36;72.59
3697;BME280;60662;48.810;8.872;2022-08-19T09:03:34;96349.88;;;20.96;70.65
3697;BME280;60662;48.810;8.872;2022-08-19T09:04:38;96354.75;;;21.10;70.28
3697;BME280;60662;48.810;8.872;2022-08-19T09:05:55;96351.13;;;21.11;69.93
3697;BME280;60662;48.810;8.872;2022-08-19T09:10:07;96349.16;;;21.23;69.92
3697;BME280;60662;48.810;8.872;2022-08-19T09:11:15;96351.13;;;21.21;69.81
3697;BME280;60662;48.810;8.872;2022-08-19T09:12:54;96350.28;;;21.20;69.92
3697;BME280;60662;48.810;8.872;2022-08-19T09:15:35;96349.13;;;21.43;69.50
3697;BME280;60662;48.810;8.872;2022-08-19T09:16:38;96341.56;;;21.48;69.04
3697;BME280;60662;48.810;8.872;2022-08-19T09:17:41;96337.53;;;21.34;69.38
3697;BME280;60662;48.810;8.872;2022-08-19T09:18:49;96346.31;;;21.64;68.67
3697;BME280;60662;48.810;8.872;2022-08-19T09:20:22;96342.69;;;21.55;68.62
3697;BME280;60662;48.810;8.872;2022-08-19T10:03:33;96365.31;;;21.49;68.50
3697;BME280;60662;48.810;8.872;2022-08-19T10:04:34;96355.44;;;21.32;68.60
3697;BME280;60662;48.810;8.872;2022-08-19T10:05:56;96357.38;;;21.40;67.91
3697;BME280;60662;48.810;8.872;2022-08-19T10:06:59;96359.75;;;21.33;67.89
3697;BME280;60662;48.810;8.872;2022-08-19T10:08:00;96366.16;;;21.40;67.88
3697;BME280;60662;48.810;8.872;2022-08-19T10:09:06;96367.28;;;21.37;67.67
3697;BME280;60662;48.810;8.872;2022-08-19T10:10:09;96371.06;;;21.35;67.72
3697;BME280;60662;48.810;8.872;2022-08-19T10:11:11;96366.31;;;21.48;67.55
3697;BME280;60662;48.810;8.872;2022-08-19T10:12:34;96358.44;;;21.66;66.37
3697;BME280;60662;48.810;8.872;2022-08-19T10:13:35;96365.47;;;21.38;66.71
3697;BME280;60662;48.810;8.872;2022-08-19T10:14:37;96367.84;;;21.41;66.68
3697;BME280;60662;48.810;8.872;2022-08-19T10:15:40;96364.47;;;21.49;66.49
3697;BME280;60662;48.810;8.872;2022-08-19T10:16:48;96358.47;;;21.57;65.75
3697;BME280;60662;48.810;8.872;2022-08-19T10:17:50;96369.09;;;21.66;65.76
3697;BME280;60662;48.810;8.872;2022-08-19T10:18:55;96363.03;;;21.74;65.27
3697;BME280;60662;48.810;8.872;2022-08-19T10:19:59;96364.16;;;21.72;65.47
3697;BME280;60662;48.810;8.872;2022-08-19T10:49:25;96343.75;;;23.28;61.27
3697;BME280;60662;48.810;8.872;2022-08-19T10:50:28;96343.13;;;23.60;60.24
3697;BME280;60662;48.810;8.872;2022-08-19T10:51:49;96344.00;;;23.95;59.65
3697;BME280;60662;48.810;8.872;2022-08-19T10:53:10;96334.09;;;24.22;58.03
3697;BME280;60662;48.810;8.872;2022-08-19T10:54:12;96333.69;;;24.43;57.39
3697;BME280;60662;48.810;8.872;2022-08-19T10:55:14;96327.56;;;24.59;56.76
3697;BME280;60662;48.810;8.872;2022-08-19T10:56:34;96324.25;;;24.74;56.17
3697;BME280;60662;48.810;8.872;2022-08-19T10:57:54;96331.09;;;24.85;55.51
3697;BME280;60662;48.810;8.872;2022-08-19T10:59:04;96332.44;;;24.81;56.11
3697;BME280;60662;48.810;8.872;2022-08-19T11:00:06;96314.22;;;24.68;55.85
3697;BME280;60662;48.810;8.872;2022-08-19T11:01:08;96331.69;;;24.54;55.93
3697;BME280;60662;48.810;8.872;2022-08-19T11:02:11;96322.69;;;24.63;56.01
3697;BME280;60662;48.810;8.872;2022-08-19T11:03:13;96319.09;;;24.81;55.77
3697;BME280;60662;48.810;8.872;2022-08-19T11:04:14;96318.56;;;24.77;55.30
3697;BME280;60662;48.810;8.872;2022-08-19T11:05:18;96330.00;;;24.44;55.59
3697;BME280;60662;48.810;8.872;2022-08-19T11:06:24;96315.31;;;24.32;56.30
3697;BME280;60662;48.810;8.872;2022-08-19T11:07:28;96330.16;;;24.35;56.23
3697;BME280;60662;48.810;8.872;2022-08-19T11:08:30;96324.06;;;24.08;56.96
3697;BME280;60662;48.810;8.872;2022-08-19T11:09:38;96317.00;;;23.64;57.74
3697;BME280;60662;48.810;8.872;2022-08-19T11:10:43;96320.94;;;23.52;58.28
3697;BME280;60662;48.810;8.872;2022-08-19T11:33:09;96318.66;;;23.91;57.36
3697;BME280;60662;48.810;8.872;2022-08-19T11:34:17;96317.78;;;24.25;57.07
3697;BME280;60662;48.810;8.872;2022-08-19T11:35:19;96319.81;;;24.40;55.39
3697;BME280;60662;48.810;8.872;2022-08-19T11:36:21;96312.06;;;24.71;54.70
3697;BME280;60662;48.810;8.872;2022-08-19T11:37:22;96333.63;;;25.03;53.92
3697;BME280;60662;48.810;8.872;2022-08-19T11:38:25;96326.44;;;24.95;53.34
3697;BME280;60662;48.810;8.872;2022-08-19T11:39:28;96332.09;;;24.75;54.30
3697;BME280;60662;48.810;8.872;2022-08-19T11:40:31;96324.41;;;24.64;53.87
3697;BME280;60662;48.810;8.872;2022-08-19T11:41:35;96325.03;;;24.50;54.28
3697;BME280;60662;48.810;8.872;2022-08-19T11:42:36;96329.81;;;24.38;54.52
3697;BME280;60662;48.810;8.872;2022-08-19T11:43:56;96336.53;;;24.07;55.02
3697;BME280;60662;48.810;8.872;2022-08-19T11:44:58;96331.03;;;24.01;54.41
3697;BME280;60662;48.810;8.872;2022-08-19T11:46:02;96333.94;;;23.89;54.92
3697;BME280;60662;48.810;8.872;2022-08-19T11:47:04;96333.91;;;23.81;54.91
3697;BME280;60662;48.810;8.872;2022-08-19T11:48:09;96332.72;;;23.75;55.08
3697;BME280;60662;48.810;8.872;2022-08-19T11:49:11;96334.09;;;23.79;55.64
3697;BME280;60662;48.810;8.872;2022-08-19T11:50:15;96333.50;;;23.94;55.22
3697;BME280;60662;48.810;8.872;2022-08-19T11:51:22;96332.25;;;24.15;54.59
3697;BME280;60662;48.810;8.872;2022-08-19T11:52:23;96333.44;;;24.20;54.42
3697;BME280;60662;48.810;8.872;2022-08-19T11:53:25;96326.16;;;24.39;53.58
3697;BME280;60662;48.810;8.872;2022-08-19T11:54:26;96329.97;;;24.36;53.59
3697;BME280;60662;48.810;8.872;2022-08-19T11:55:27;96326.84;;;24.49;53.08
3697;BME280;60662;48.810;8.872;2022-08-19T11:56:29;96318.84;;;24.49;52.75
3697;BME280;60662;48.810;8.872;2022-08-19T11:57:31;96324.09;;;24.67;52.17
3697;BME280;60662;48.810;8.872;2022-08-19T11:58:33;96331.25;;;24.83;51.75
3697;BME280;60662;48.810;8.872;2022-08-19T11:59:35;96320.94;;;24.80;51.56
3697;BME280;60662;48.810;8.872;2022-08-19T12:00:38;96324.75;;;25.35;50.49
3697;BME280;60662;48.810;8.872;2022-08-19T12:01:43;96338.81;;;26.10;49.17
3697;BME280;60662;48.810;8.872;2022-08-19T12:02:44;96314.09;;;26.08;48.37
3697;BME280;60662;48.810;8.872;2022-08-19T12:03:48;96327.25;;;26.72;47.09
3697;BME280;60662;48.810;8.872;2022-08-19T12:04:49;96324.22;;;27.22;45.62
3697;BME280;60662;48.810;8.872;2022-08-19T12:05:51;96319.44;;;27.17;45.34
3697;BME280;60662;48.810;8.872;2022-08-19T12:06:52;96319.34;;;27.26;45.66
3697;BME280;60662;48.810;8.872;2022-08-19T12:07:54;96326.50;;;27.10;45.56
3697;BME280;60662;48.810;8.872;2022-08-19T12:08:57;96323.22;;;27.23;45.29
3697;BME280;60662;48.810;8.872;2022-08-19T12:10:01;96320.50;;;27.46;44.59
3697;BME280;60662;48.810;8.872;2022-08-19T12:11:04;96319.78;;;27.52;44.19
3697;BME280;60662;48.810;8.872;2022-08-19T12:12:09;96326.66;;;27.85;43.82
3697;BME280;60662;48.810;8.872;2022-08-19T12:13:11;96319.63;;;27.99;43.71
3697;BME280;60662;48.810;8.872;2022-08-19T12:14:19;96318.22;;;27.88;43.68
3697;BME280;60662;48.810;8.872;2022-08-19T12:15:21;96326.56;;;27.78;44.19
3697;BME280;60662;48.810;8.872;2022-08-19T12:16:26;96322.28;;;27.69;44.19
3697;BME280;60662;48.810;8.872;2022-08-19T12:17:29;96325.16;;;28.12;43.83
3697;BME280;60662;48.810;8.872;2022-08-19T12:18:31;96316.75;;;27.85;44.05
3697;BME280;60662;48.810;8.872;2022-08-19T12:19:33;96318.88;;;27.90;44.15
3697;BME280;60662;48.810;8.872;2022-08-19T12:20:36;96313.06;;;27.86;43.72
3697;BME280;60662;48.810;8.872;2022-08-19T12:21:38;96315.22;;;27.00;45.45
3697;BME280;60662;48.810;8.872;2022-08-19T12:22:39;96318.03;;;26.83;46.35
3697;BME280;60662;48.810;8.872;2022-08-19T12:23:44;96316.03;;;27.00;46.22
3697;BME280;60662;48.810;8.872;2022-08-19T12:24:50;96302.84;;;26.67;46.61
3697;BME280;60662;48.810;8.872;2022-08-19T12:25:54;96307.34;;;26.75;46.42
3697;BME280;60662;48.810;8.872;2022-08-19T12:26:58;96296.19;;;26.40;46.74
3697;BME280;60662;48.810;8.872;2022-08-19T12:28:03;96310.78;;;26.61;47.19
3697;BME280;60662;48.810;8.872;2022-08-19T12:29:05;96314.88;;;27.18;45.73
3697;BME280;60662;48.810;8.872;2022-08-19T12:30:09;96302.69;;;28.13;43.70
3697;BME280;60662;48.810;8.872;2022-08-19T12:31:11;96303.16;;;28.69;42.44
3697;BME280;60662;48.810;8.872;2022-08-19T12:32:15;96305.28;;;29.23;42.12
3697;BME280;60662;48.810;8.872;2022-08-19T12:33:19;96301.44;;;29.61;41.28
3697;BME280;60662;48.810;8.872;2022-08-19T12:34:28;96307.97;;;29.80;40.78
3697;BME280;60662;48.810;8.872;2022-08-19T12:35:31;96305.03;;;30.03;40.28
3697;BME280;60662;48.810;8.872;2022-08-19T12:36:33;96302.09;;;29.98;40.83
3697;BME280;60662;48.810;8.872;2022-08-19T12:37:35;96293.44;;;29.17;41.00
3697;BME280;60662;48.810;8.872;2022-08-19T12:38:38;96290.34;;;28.71;41.76
3697;BME280;60662;48.810;8.872;2022-08-19T12:39:41;96291.56;;;28.68;42.08
3697;BME280;60662;48.810;8.872;2022-08-19T12:40:47;96301.28;;;28.54;41.16
3697;BME280;60662;48.810;8.872;2022-08-19T12:41:48;96289.44;;;27.97;41.86
3697;BME280;60662;48.810;8.872;2022-08-19T12:42:55;96298.91;;;27.93;42.33
3697;BME280;60662;48.810;8.872;2022-08-19T12:43:56;96304.34;;;28.29;41.89
3697;BME280;60662;48.810;8.872;2022-08-19T12:44:58;96302.66;;;27.98;43.27
3697;BME280;60662;48.810;8.872;2022-08-19T12:45:59;96307.66;;;28.31;42.38
3697;BME280;60662;48.810;8.872;2022-08-19T12:47:01;96312.78;;;28.48;42.04
3697;BME280;60662;48.810;8.872;2022-08-19T12:48:08;96304.63;;;28.19;42.04
3697;BME280;60662;48.810;8.872;2022-08-19T12:49:31;96312.13;;;28.09;42.22
3697;BME280;60662;48.810;8.872;2022-08-19T12:50:54;96303.91;;;27.81;42.66
3697;BME280;60662;48.810;8.872;2022-08-19T12:51:56;96307.88;;;27.70;42.99
3697;BME280;60662;48.810;8.872;2022-08-19T12:52:59;96305.09;;;27.63;42.67
3697;BME280;60662;48.810;8.872;2022-08-19T12:54:00;96309.84;;;27.38;43.09
3697;BME280;60662;48.810;8.872;2022-08-19T12:55:05;96301.16;;;27.36;43.29
3697;BME280;60662;48.810;8.872;2022-08-19T12:56:08;96310.53;;;27.55;43.17
3697;BME280;60662;48.810;8.872;2022-08-19T12:57:12;96312.00;;;26.81;43.90
3697;BME280;60662;48.810;8.872;2022-08-19T12:58:14;96317.34;;;27.04;43.84
3697;BME280;60662;48.810;8.872;2022-08-19T12:59:16;96308.00;;;27.24;43.54
3697;BME280;60662;48.810;8.872;2022-08-19T13:00:21;96312.00;;;26.81;44.15
3697;BME280;60662;48.810;8.872;2022-08-19T13:01:22;96317.16;;;26.83;44.52
3697;BME280;60662;48.810;8.872;2022-08-19T13:02:24;96325.03;;;26.84;44.26
3697;BME280;60662;48.810;8.872;2022-08-19T13:03:25;96321.34;;;26.85;44.04
3697;BME280;60662;48.810;8.872;2022-08-19T13:04:30;96319.09;;;26.66;44.23
3697;BME280;60662;48.810;8.872;2022-08-19T13:05:33;96318.31;;;26.57;44.55
3697;BME280;60662;48.810;8.872;2022-08-19T13:06:35;96322.28;;;26.69;44.48
3697;BME280;60662;48.810;8.872;2022-08-19T13:07:39;96311.59;;;26.61;44.14
3697;BME280;60662;48.810;8.872;2022-08-19T13:08:41;96317.63;;;26.63;44.14
3697;BME280;60662;48.810;8.872;2022-08-19T13:09:46;96318.66;;;26.85;43.77
3697;BME280;60662;48.810;8.872;2022-08-19T13:10:48;96314.78;;;26.88;43.56
3697;BME280;60662;48.810;8.872;2022-08-19T13:11:49;96318.84;;;26.84;43.57
3697;BME280;60662;48.810;8.872;2022-08-19T13:12:51;96317.31;;;26.89;43.36
3697;BME280;60662;48.810;8.872;2022-08-19T13:13:54;96322.16;;;26.63;44.01
3697;BME280;60662;48.810;8.872;2022-08-19T13:14:56;96326.97;;;26.36;45.53
3697;BME280;60662;48.810;8.872;2022-08-19T13:16:01;96325.59;;;26.00;47.17
3697;BME280;60662;48.810;8.872;2022-08-19T13:17:04;96333.00;;;25.90;48.18
3697;BME280;60662;48.810;8.872;2022-08-19T13:18:07;96325.56;;;25.69;49.10
3697;BME280;60662;48.810;8.872;2022-08-19T13:19:08;96326.78;;;25.41;49.71
3697;BME280;60662;48.810;8.872;2022-08-19T13:20:10;96331.78;;;25.36;50.20
3697;BME280;60662;48.810;8.872;2022-08-19T13:21:12;96323.09;;;25.26;50.41
3697;BME280;60662;48.810;8.872;2022-08-19T13:22:14;96324.59;;;25.29;50.29
3697;BME280;60662;48.810;8.872;2022-08-19T13:23:15;96317.56;;;25.44;50.28
3697;BME280;60662;48.810;8.872;2022-08-19T13:24:17;96320.06;;;25.54;49.60
3697;BME280;60662;48.810;8.872;2022-08-19T13:25:19;96323.06;;;25.59;49.36
3697;BME280;60662;48.810;8.872;2022-08-19T13:26:22;96317.53;;;25.69;48.89
3697;BME280;60662;48.810;8.872;2022-08-19T13:27:23;96320.84;;;25.71;48.85
3697;BME280;60662;48.810;8.872;2022-08-19T13:28:25;96328.13;;;25.94;48.65
3697;BME280;60662;48.810;8.872;2022-08-19T13:29:29;96318.25;;;26.02;49.16
3697;BME280;60662;48.810;8.872;2022-08-19T13:30:49;96322.47;;;25.97;49.13
3697;BME280;60662;48.810;8.872;2022-08-19T13:32:09;96321.06;;;26.17;48.77
3697;BME280;60662;48.810;8.872;2022-08-19T13:33:30;96305.53;;;26.04;48.55
3697;BME280;60662;48.810;8.872;2022-08-19T13:34:33;96322.88;;;25.61;49.41
3697;BME280;60662;48.810;8.872;2022-08-19T13:35:44;96327.88;;;25.72;49.72
3697;BME280;60662;48.810;8.872;2022-08-19T13:36:46;96328.38;;;25.67;49.82
3697;BME280;60662;48.810;8.872;2022-08-19T13:37:47;96321.56;;;25.56;50.13
3697;BME280;60662;48.810;8.872;2022-08-19T13:38:49;96340.44;;;25.63;49.94
3697;BME280;60662;48.810;8.872;2022-08-19T13:39:50;96325.25;;;25.55;49.79
3697;BME280;60662;48.810;8.872;2022-08-19T13:40:54;96336.41;;;25.75;49.59
3697;BME280;60662;48.810;8.872;2022-08-19T13:41:56;96325.03;;;25.73;49.56
3697;BME280;60662;48.810;8.872;2022-08-19T13:42:59;96329.22;;;25.68;49.52
3697;BME280;60662;48.810;8.872;2022-08-19T13:44:00;96332.09;;;25.66;49.56
3697;BME280;60662;48.810;8.872;2022-08-19T13:45:03;96325.88;;;25.66;49.75
3697;BME280;60662;48.810;8.872;2022-08-19T13:46:10;96334.44;;;25.61;49.63
3697;BME280;60662;48.810;8.872;2022-08-19T13:47:15;96327.63;;;25.42;49.67
3697;BME280;60662;48.810;8.872;2022-08-19T13:48:16;96333.78;;;25.26;50.01
3697;BME280;60662;48.810;8.872;2022-08-19T13:49:20;96332.28;;;25.23;50.07
3697;BME280;60662;48.810;8.872;2022-08-19T13:50:24;96326.09;;;25.23;50.43
3697;BME280;60662;48.810;8.872;2022-08-19T13:51:26;96331.13;;;25.09;50.52
3697;BME280;60662;48.810;8.872;2022-08-19T14:36:43;96322.78;;;24.28;50.73
3697;BME280;60662;48.810;8.872;2022-08-19T14:37:46;96332.00;;;24.34;51.20
3697;BME280;60662;48.810;8.872;2022-08-19T14:38:48;96335.81;;;24.40;51.44
3697;BME280;60662;48.810;8.872;2022-08-19T14:39:49;96324.13;;;24.24;50.91
3697;BME280;60662;48.810;8.872;2022-08-19T14:40:51;96323.94;;;24.26;50.84
3697;BME280;60662;48.810;8.872;2022-08-19T14:41:54;96332.44;;;24.21;51.31
3697;BME280;60662;48.810;8.872;2022-08-19T14:42:59;96328.75;;;24.14;51.82
3697;BME280;60662;48.810;8.872;2022-08-19T14:44:02;96331.09;;;24.17;51.35
3697;BME280;60662;48.810;8.872;2022-08-19T14:45:04;96318.28;;;24.21;50.76
3697;BME280;60662;48.810;8.872;2022-08-19T14:46:08;96323.78;;;24.27;50.59
3697;BME280;60662;48.810;8.872;2022-08-19T15:08:02;96312.97;;;25.86;45.99
3697;BME280;60662;48.810;8.872;2022-08-19T15:09:04;96314.72;;;26.18;45.93
3697;BME280;60662;48.810;8.872;2022-08-19T15:10:07;96322.38;;;26.53;44.95
3697;BME280;60662;48.810;8.872;2022-08-19T15:11:11;96325.56;;;26.48;44.29
3697;BME280;60662;48.810;8.872;2022-08-19T15:12:13;96318.03;;;26.52;44.45
3697;BME280;60662;48.810;8.872;2022-08-19T15:13:23;96319.69;;;26.84;43.85
3697;BME280;60662;48.810;8.872;2022-08-19T15:14:27;96321.94;;;26.96;43.93
3697;BME280;60662;48.810;8.872;2022-08-19T15:15:28;96323.13;;;27.16;44.28
3697;BME280;60662;48.810;8.872;2022-08-19T15:16:30;96319.28;;;26.96;43.91
3697;BME280;60662;48.810;8.872;2022-08-19T15:17:32;96315.03;;;27.01;44.06
3697;BME280;60662;48.810;8.872;2022-08-19T15:18:56;96310.34;;;27.18;43.36
3697;BME280;60662;48.810;8.872;2022-08-19T15:19:58;96314.56;;;26.98;43.94
3697;BME280;60662;48.810;8.872;2022-08-19T15:21:00;96325.25;;;26.98;44.22
3697;BME280;60662;48.810;8.872;2022-08-19T15:22:02;96319.44;;;26.94;43.85
3697;BME280;60662;48.810;8.872;2022-08-19T15:23:04;96319.00;;;27.05;43.33
3697;BME280;60662;48.810;8.872;2022-08-19T15:24:05;96323.94;;;27.17;42.29
3697;BME280;60662;48.810;8.872;2022-08-19T15:25:09;96315.97;;;27.09;42.78
3697;BME280;60662;48.810;8.872;2022-08-19T15:26:12;96318.38;;;27.18;42.25
3697;BME280;60662;48.810;8.872;2022-08-19T15:27:16;96314.31;;;27.46;42.25
3697;BME280;60662;48.810;8.872;2022-08-19T15:28:18;96318.88;;;27.45;42.03
3697;BME280;60662;48.810;8.872;2022-08-19T15:29:19;96320.75;;;27.36;41.56
3697;BME280;60662;48.810;8.872;2022-08-19T15:30:26;96322.53;;;27.06;42.19
3697;BME280;60662;48.810;8.872;2022-08-19T15:31:29;96322.69;;;27.04;42.43
3697;BME280;60662;48.810;8.872;2022-08-19T15:32:38;96317.72;;;26.70;43.20
3697;BME280;60662;48.810;8.872;2022-08-19T15:33:40;96324.28;;;26.67;43.54
3697;BME280;60662;48.810;8.872;2022-08-19T15:34:45;96321.88;;;26.49;43.45
3697;BME280;60662;48.810;8.872;2022-08-19T15:35:50;96324.28;;;26.36;43.83
3697;BME280;60662;48.810;8.872;2022-08-19T15:36:52;96323.59;;;26.42;43.88
3697;BME280;60662;48.810;8.872;2022-08-19T15:37:54;96320.44;;;26.38;44.44
3697;BME280;60662;48.810;8.872;2022-08-19T15:38:57;96325.03;;;26.21;44.76
3697;BME280;60662;48.810;8.872;2022-08-19T15:39:58;96324.00;;;26.31;44.87
3697;BME280;60662;48.810;8.872;2022-08-19T15:41:02;96314.41;;;26.13;44.13
3697;BME280;60662;48.810;8.872;2022-08-19T15:42:22;96322.25;;;26.15;44.24
3697;BME280;60662;48.810;8.872;2022-08-19T15:43:30;96322.25;;;26.06;44.48
3697;BME280;60662;48.810;8.872;2022-08-19T15:44:33;96319.06;;;26.03;44.57
3697;BME280;60662;48.810;8.872;2022-08-19T15:45:34;96336.16;;;25.94;44.00
3697;BME280;60662;48.810;8.872;2022-08-19T15:46:38;96329.19;;;25.84;44.48
3697;BME280;60662;48.810;8.872;2022-08-19T15:47:40;96334.06;;;25.64;44.09
3697;BME280;60662;48.810;8.872;2022-08-19T15:48:41;96315.88;;;25.68;44.32
3697;BME280;60662;48.810;8.872;2022-08-19T15:49:43;96325.56;;;25.69;44.33
3697;BME280;60662;48.810;8.872;2022-08-19T15:50:45;96334.06;;;25.64;44.70
3697;BME280;60662;48.810;8.872;2022-08-19T15:51:48;96327.09;;;25.47;45.08
3697;BME280;60662;48.810;8.872;2022-08-19T15:52:55;96332.13;;;25.41;45.66
3697;BME280;60662;48.810;8.872;2022-08-19T17:19:36;96348.81;;;23.92;50.40
3697;BME280;60662;48.810;8.872;2022-08-19T17:20:38;96344.69;;;23.98;49.87
3697;BME280;60662;48.810;8.872;2022-08-19T17:21:40;96333.94;;;23.89;49.87
3697;BME280;60662;48.810;8.872;2022-08-19T17:22:41;96352.34;;;24.01;50.07
3697;BME280;60662;48.810;8.872;2022-08-19T17:23:43;96356.00;;;24.00;50.03
3697;BME280;60662;48.810;8.872;2022-08-19T17:24:44;96357.34;;;23.95;50.33
3697;BME280;60662;48.810;8.872;2022-08-19T17:25:46;96353.50;;;23.98;50.17
3697;BME280;60662;48.810;8.872;2022-08-19T17:26:47;96361.34;;;24.00;50.31
